createdAt,value
2022-11-20T00:02:32.624Z,24.58
2022-11-20T00:06:06.235Z,36.40
2022-11-20T00:09:13.947Z,31.90
2022-11-20T00:12:22.384Z,27.20
2022-11-20T00:15:30.220Z,30.35
2022-11-20T00:18:39.033Z,28.77
2022-11-20T00:21:46.814Z,23.75
2022-11-20T00:25:15.734Z,21.15
2022-11-20T00:28:23.702Z,24.83
2022-11-20T00:31:49.984Z,21.10
2022-11-20T00:34:57.708Z,21.58
2022-11-20T00:38:26.289Z,21.48
2022-11-20T00:41:34.285Z,20.67
2022-11-20T00:45:02.514Z,21.00
2022-11-20T00:47:51.117Z,21.98
2022-11-20T00:51:23.890Z,19.70
2022-11-20T00:54:31.749Z,20.42
2022-11-20T00:58:02.492Z,20.10
2022-11-20T01:01:15.972Z,17.90
2022-11-20T01:04:46.654Z,20.67
2022-11-20T01:07:54.555Z,20.85
2022-11-20T01:11:12.175Z,21.48
2022-11-20T01:14:21.288Z,21.85
2022-11-20T01:17:50.251Z,20.95
2022-11-20T01:21:06.339Z,21.30
2022-11-20T01:24:18.462Z,21.30
2022-11-20T01:27:26.296Z,19.48
2022-11-20T01:30:54.883Z,20.90
2022-11-20T01:34:08.520Z,20.65
2022-11-20T01:37:38.652Z,20.30
2022-11-20T01:40:46.422Z,20.83
2022-11-20T01:43:54.978Z,20.42
2022-11-20T01:47:06.203Z,20.20
2022-11-20T01:50:16.991Z,18.50
2022-11-20T01:53:29.833Z,21.27
2022-11-20T01:56:45.282Z,20.35
2022-11-20T02:00:00.863Z,16.35
2022-11-20T02:03:15.107Z,18.45
2022-11-20T02:06:51.177Z,20.10
2022-11-20T02:09:59.063Z,18.95
2022-11-20T02:13:45.171Z,15.73
2022-11-20T02:16:40.792Z,18.65
2022-11-20T02:20:10.828Z,16.98
2022-11-20T02:23:28.810Z,19.75
2022-11-20T02:27:16.621Z,19.20
2022-11-20T02:30:24.670Z,15.82
2022-11-20T02:32:53.832Z,20.15
2022-11-20T02:36:01.870Z,18.87
2022-11-20T02:39:14.222Z,19.70
2022-11-20T02:42:21.807Z,19.83
2022-11-20T02:45:12.622Z,20.80
2022-11-20T02:48:20.623Z,19.00
2022-11-20T02:51:49.159Z,19.52
2022-11-20T02:54:59.159Z,19.67
2022-11-20T02:58:28.413Z,18.52
2022-11-20T03:01:36.238Z,19.25
2022-11-20T03:05:04.633Z,15.68
2022-11-20T03:07:52.381Z,18.05
2022-11-20T03:11:07.343Z,19.55
2022-11-20T03:14:15.420Z,18.80
2022-11-20T03:17:43.641Z,17.60
2022-11-20T03:20:51.214Z,18.85
2022-11-20T03:24:19.434Z,18.55
2022-11-20T03:27:27.073Z,18.23
2022-11-20T03:30:36.226Z,18.95
2022-11-20T03:33:45.099Z,18.23
2022-11-20T03:36:55.529Z,17.75
2022-11-20T03:39:48.172Z,17.33
2022-11-20T03:43:13.840Z,17.70
2022-11-20T03:46:22.157Z,17.77
2022-11-20T03:49:31.284Z,18.45
2022-11-20T03:52:20.692Z,18.65
2022-11-20T03:55:47.323Z,18.00
2022-11-20T03:58:56.756Z,19.23
2022-11-20T04:02:08.742Z,20.02
2022-11-20T04:05:39.201Z,19.92
2022-11-20T04:08:30.675Z,18.50
2022-11-20T04:11:59.466Z,19.75
2022-11-20T04:15:07.750Z,19.73
2022-11-20T04:18:37.111Z,16.98
2022-11-20T04:21:45.640Z,19.17
2022-11-20T04:24:53.591Z,16.27
2022-11-20T04:27:41.354Z,19.77
2022-11-20T04:30:29.603Z,18.30
2022-11-20T04:33:17.644Z,18.02
2022-11-20T04:36:46.547Z,18.05
2022-11-20T04:39:54.905Z,17.45
2022-11-20T04:43:12.649Z,14.15
2022-11-20T04:46:21.996Z,17.35
2022-11-20T04:49:32.644Z,16.75
2022-11-20T04:52:41.382Z,16.50
2022-11-20T04:55:50.983Z,15.48
2022-11-20T04:59:02.191Z,14.60
2022-11-20T05:02:32.769Z,16.55
2022-11-20T05:05:40.303Z,15.45
2022-11-20T05:09:05.306Z,16.50
2022-11-20T05:11:53.035Z,16.35
2022-11-20T05:15:11.653Z,15.82
2022-11-20T05:18:16.186Z,15.70
2022-11-20T05:21:44.800Z,15.80
2022-11-20T05:24:32.476Z,14.07
2022-11-20T05:28:00.352Z,15.93
2022-11-20T05:30:48.665Z,13.68
2022-11-20T05:33:58.293Z,16.17
2022-11-20T05:36:45.932Z,16.33
2022-11-20T05:40:15.355Z,16.48
2022-11-20T05:43:04.126Z,16.70
2022-11-20T05:46:15.859Z,16.02
2022-11-20T05:49:23.733Z,15.25
2022-11-20T05:52:32.560Z,15.75
2022-11-20T05:55:40.298Z,16.75
2022-11-20T05:58:31.391Z,19.17
2022-11-20T06:01:38.945Z,13.82
2022-11-20T06:04:37.171Z,17.02
2022-11-20T06:07:41.997Z,13.15
2022-11-20T06:10:41.095Z,16.65
2022-11-20T06:13:49.559Z,16.50
2022-11-20T06:17:17.975Z,16.27
2022-11-20T06:20:25.687Z,16.20
2022-11-20T06:23:36.269Z,15.93
2022-11-20T06:26:46.333Z,13.85
2022-11-20T06:29:56.855Z,15.90
2022-11-20T06:32:46.609Z,15.43
2022-11-20T06:36:01.019Z,15.60
2022-11-20T06:38:52.243Z,19.33
2022-11-20T06:42:17.196Z,34.33
2022-11-20T06:45:24.962Z,34.22
2022-11-20T06:48:16.117Z,42.83
2022-11-20T06:51:24.023Z,25.55
2022-11-20T06:54:52.401Z,19.67
2022-11-20T06:58:00.269Z,17.15
2022-11-20T07:01:11.386Z,16.48
2022-11-20T07:04:19.026Z,17.95
2022-11-20T07:07:31.556Z,16.08
2022-11-20T07:10:03.698Z,16.73
2022-11-20T07:12:54.990Z,16.90
2022-11-20T07:15:51.061Z,19.10
2022-11-20T07:18:40.108Z,17.98
2022-11-20T07:21:27.871Z,17.60
2022-11-20T07:24:56.259Z,13.07
2022-11-20T07:27:44.327Z,18.98
2022-11-20T07:31:18.806Z,15.25
2022-11-20T07:34:07.348Z,19.30
2022-11-20T07:37:37.333Z,16.10
2022-11-20T07:40:45.541Z,18.90
2022-11-20T07:43:40.989Z,16.80
2022-11-20T07:46:44.580Z,17.40
2022-11-20T07:50:14.854Z,16.08
2022-11-20T07:53:22.807Z,16.27
2022-11-20T07:56:15.340Z,15.85
2022-11-20T07:59:23.159Z,14.45
2022-11-20T08:02:17.409Z,15.18
2022-11-20T08:05:47.039Z,16.30
2022-11-20T08:08:37.808Z,16.83
2022-11-20T08:11:50.334Z,17.10
2022-11-20T08:14:56.525Z,16.20
2022-11-20T08:18:02.046Z,17.37
2022-11-20T08:20:52.898Z,16.55
2022-11-20T08:23:21.586Z,17.42
2022-11-20T08:26:10.287Z,19.67
2022-11-20T08:28:59.407Z,18.05
2022-11-20T08:31:28.625Z,14.68
2022-11-20T08:34:57.199Z,20.20
2022-11-20T08:38:10.822Z,18.85
2022-11-20T08:41:35.011Z,17.00
2022-11-20T08:44:28.061Z,15.27
2022-11-20T08:47:24.272Z,15.52
2022-11-20T08:50:52.186Z,14.68
2022-11-20T08:53:40.956Z,14.73
2022-11-20T08:57:09.278Z,14.90
2022-11-20T09:00:17.521Z,15.73
2022-11-20T09:03:32.639Z,22.15
2022-11-20T09:06:35.872Z,16.80
2022-11-20T09:10:23.046Z,18.00
2022-11-20T09:13:14.102Z,27.08
2022-11-20T09:16:05.986Z,15.68
2022-11-20T09:19:07.249Z,16.95
2022-11-20T09:22:02.590Z,16.33
2022-11-20T09:25:11.191Z,15.05
2022-11-20T09:28:20.160Z,13.43
2022-11-20T09:31:20.782Z,14.23
2022-11-20T09:34:49.259Z,13.77
2022-11-20T09:37:39.458Z,13.93
2022-11-20T09:40:59.243Z,13.68
2022-11-20T09:44:24.473Z,14.23
2022-11-20T09:47:30.128Z,12.98
2022-11-20T09:50:26.761Z,12.25
2022-11-20T09:54:16.836Z,12.68
2022-11-20T09:57:38.955Z,12.77
2022-11-20T10:00:52.746Z,12.27
2022-11-20T10:03:49.621Z,13.32
2022-11-20T10:10:44.287Z,12.20
2022-11-20T10:13:54.835Z,12.30
2022-11-20T10:17:14.266Z,12.02
2022-11-20T10:20:20.759Z,12.77
2022-11-20T10:23:38.714Z,11.77
2022-11-20T10:27:00.005Z,11.57
2022-11-20T10:30:28.355Z,11.40
2022-11-20T10:33:57.028Z,11.48
2022-11-20T10:37:14.050Z,11.35
2022-11-20T10:40:20.546Z,11.23
2022-11-20T10:43:34.282Z,10.93
2022-11-20T10:46:25.191Z,11.07
2022-11-20T10:49:35.837Z,11.80
2022-11-20T10:52:57.130Z,10.60
2022-11-20T10:55:44.674Z,11.25
2022-11-20T10:58:33.814Z,10.27
2022-11-20T11:01:44.461Z,10.07
2022-11-20T11:04:31.403Z,11.00
2022-11-20T11:08:00.371Z,12.05
2022-11-20T11:11:00.142Z,11.80
2022-11-20T11:14:14.373Z,11.48
2022-11-20T11:17:34.209Z,11.82
2022-11-20T11:20:24.964Z,11.27
2022-11-20T11:23:41.472Z,11.57
2022-11-20T11:26:58.853Z,11.27
2022-11-20T11:29:47.709Z,11.02
2022-11-20T11:33:07.491Z,9.88
2022-11-20T11:35:59.581Z,10.63
2022-11-20T11:38:54.918Z,12.02
2022-11-20T11:41:45.221Z,10.60
2022-11-20T11:45:07.775Z,10.93
2022-11-20T11:48:04.918Z,11.52
2022-11-20T11:50:57.584Z,11.15
2022-11-20T11:54:06.522Z,13.25
2022-11-20T11:57:53.169Z,10.45
2022-11-20T12:00:46.502Z,10.05
2022-11-20T12:04:34.558Z,11.07
2022-11-20T12:07:48.034Z,10.55
2022-11-20T12:10:58.557Z,10.50
2022-11-20T12:14:25.437Z,10.75
2022-11-20T12:17:21.425Z,10.18
2022-11-20T12:20:19.612Z,10.98
2022-11-20T12:24:20.193Z,9.88
2022-11-20T12:27:59.156Z,10.57
2022-11-20T12:31:25.456Z,10.73
2022-11-20T12:35:01.448Z,10.85
2022-11-20T12:42:17.652Z,10.25
2022-11-20T12:52:40.104Z,9.80
2022-11-20T13:00:17.376Z,10.93
2022-11-20T13:03:50.198Z,9.55
2022-11-20T13:07:29.889Z,10.88
2022-11-20T13:11:01.752Z,11.43
2022-11-20T13:14:36.558Z,10.60
2022-11-20T13:28:13.936Z,10.90
2022-11-20T13:31:53.253Z,10.80
2022-11-20T13:35:16.690Z,10.90
2022-11-20T13:38:53.150Z,11.37
2022-11-20T13:42:17.232Z,14.73
2022-11-20T15:08:20.237Z,61.13
2022-11-20T15:11:39.235Z,15.48
2022-11-20T15:14:52.772Z,14.63
2022-11-20T15:18:01.996Z,15.88
2022-11-20T15:21:18.563Z,19.83
2022-11-20T15:24:47.041Z,21.98
2022-11-20T15:28:28.883Z,30.05
2022-11-20T15:31:57.785Z,27.17
2022-11-20T15:35:07.342Z,24.80
2022-11-20T15:37:59.702Z,23.00
2022-11-20T15:44:31.784Z,32.50
2022-11-20T16:00:51.676Z,38.13
2022-11-20T16:11:20.266Z,26.23
2022-11-20T16:14:34.024Z,32.15
2022-11-20T16:21:16.606Z,25.35
2022-11-20T16:24:46.299Z,28.02
2022-11-20T16:27:34.358Z,26.85
2022-11-20T16:31:20.164Z,21.45
2022-11-20T16:34:29.494Z,21.08
2022-11-20T16:37:42.379Z,19.98
2022-11-20T16:44:02.320Z,19.35
2022-11-20T16:47:13.293Z,20.95
2022-11-20T16:50:51.233Z,22.55
2022-11-20T16:54:04.578Z,22.58
2022-11-20T16:57:14.838Z,27.45
2022-11-20T17:00:22.855Z,23.30
2022-11-20T17:26:18.708Z,20.10
2022-11-20T17:29:56.812Z,19.17
2022-11-20T17:59:59.456Z,17.30
2022-11-20T18:02:55.466Z,16.27
2022-11-20T18:05:47.938Z,85.90
2022-11-20T18:08:55.484Z,28.15
2022-11-20T18:12:17.651Z,17.25
2022-11-20T18:16:04.566Z,25.25
2022-11-20T18:19:22.635Z,21.42
2022-11-20T18:22:59.867Z,19.58
2022-11-20T18:30:45.407Z,13.23
2022-11-20T18:34:14.529Z,15.85
2022-11-20T18:37:57.616Z,16.52
2022-11-20T18:42:10.233Z,16.33
2022-11-20T18:46:24.141Z,17.10
2022-11-20T18:50:13.626Z,16.85
2022-11-20T18:54:09.341Z,18.87
2022-11-20T19:01:15.628Z,16.70
2022-11-20T19:08:08.204Z,17.67
2022-11-20T19:11:08.370Z,20.60
2022-11-20T19:14:01.695Z,20.65
2022-11-20T19:16:55.736Z,17.92
2022-11-20T20:16:48.788Z,26.80
2022-11-20T20:19:36.312Z,28.23
2022-11-20T20:22:04.991Z,29.48
2022-11-20T20:24:32.742Z,30.08
2022-11-20T20:27:01.038Z,27.05
2022-11-20T20:29:30.054Z,26.42
2022-11-20T20:32:00.935Z,27.40
2022-11-20T20:34:31.618Z,30.25
2022-11-20T20:37:05.398Z,39.25
2022-11-20T20:39:34.215Z,35.97
2022-11-20T20:42:02.163Z,41.40
2022-11-20T20:44:52.749Z,34.47
2022-11-20T20:47:21.759Z,34.85
2022-11-20T20:49:49.905Z,34.83
2022-11-20T20:52:18.211Z,34.47
2022-11-20T20:54:46.315Z,37.00
2022-11-20T20:57:15.177Z,37.85
2022-11-20T20:59:44.060Z,36.70
2022-11-20T21:02:13.277Z,35.78
2022-11-20T21:04:42.214Z,34.45
2022-11-20T21:07:11.307Z,37.85
2022-11-20T21:09:39.908Z,34.92
2022-11-20T21:12:08.068Z,34.63
2022-11-20T21:14:35.932Z,35.42
2022-11-20T21:17:04.965Z,38.58
2022-11-20T21:19:33.450Z,36.08
2022-11-20T21:22:03.426Z,36.92
2022-11-20T21:24:36.137Z,92.22
2022-11-20T21:27:07.030Z,83.70
2022-11-20T21:29:35.494Z,64.85
2022-11-20T21:32:03.752Z,68.43
2022-11-20T21:34:32.065Z,60.65
2022-11-20T21:37:00.320Z,59.38
2022-11-20T21:39:29.108Z,61.72
2022-11-20T21:41:57.181Z,58.13
2022-11-20T21:44:32.777Z,55.85
2022-11-20T21:47:00.621Z,49.42
2022-11-20T21:49:29.619Z,45.45
2022-11-20T21:51:57.415Z,45.12
2022-11-20T21:54:25.930Z,44.60
2022-11-20T21:56:55.947Z,48.03
2022-11-20T21:59:23.774Z,44.05
2022-11-20T22:01:51.894Z,41.28
2022-11-20T22:04:21.474Z,40.65
2022-11-20T22:06:49.515Z,41.35
2022-11-20T22:09:25.061Z,40.40
2022-11-20T22:11:53.511Z,41.08
2022-11-20T22:14:21.563Z,39.67
2022-11-20T22:16:51.023Z,36.58
2022-11-20T22:19:20.956Z,36.20
2022-11-20T22:21:50.903Z,37.78
2022-11-20T22:24:21.713Z,39.33
2022-11-20T22:26:50.082Z,36.13
2022-11-20T22:29:20.983Z,37.67
2022-11-20T22:31:51.596Z,36.85
2022-11-20T22:34:19.276Z,35.88
2022-11-20T22:36:47.227Z,35.80
2022-11-20T22:39:15.562Z,34.10
2022-11-20T22:41:43.685Z,31.55
2022-11-20T22:44:15.533Z,29.73
2022-11-20T22:46:43.906Z,28.73
2022-11-20T22:49:11.900Z,31.60
2022-11-20T22:51:41.349Z,30.75
2022-11-20T22:54:12.135Z,36.28
2022-11-20T22:56:41.037Z,35.60
2022-11-20T22:59:11.404Z,35.17
2022-11-20T23:01:39.296Z,34.08
2022-11-20T23:04:11.945Z,36.05
2022-11-20T23:06:39.937Z,33.53
2022-11-20T23:09:09.092Z,34.38
2022-11-20T23:11:37.333Z,33.35
2022-11-20T23:14:13.536Z,28.70
2022-11-20T23:16:42.278Z,28.67
2022-11-20T23:19:13.014Z,29.33
2022-11-20T23:21:42.795Z,29.53
2022-11-20T23:24:11.191Z,28.58
2022-11-20T23:26:40.890Z,28.75
2022-11-20T23:29:09.220Z,25.80
2022-11-20T23:31:37.346Z,26.80
2022-11-20T23:34:08.354Z,25.17
2022-11-20T23:36:36.099Z,27.05
2022-11-20T23:39:04.228Z,27.15
2022-11-20T23:41:31.964Z,25.55
2022-11-20T23:43:59.672Z,25.23
2022-11-20T23:46:27.802Z,25.10
2022-11-20T23:48:56.289Z,25.42
2022-11-20T23:51:24.312Z,25.37
2022-11-20T23:53:52.783Z,25.17
2022-11-20T23:56:20.446Z,24.37
2022-11-20T23:58:48.213Z,25.30
